createdAt,value
2022-11-20T00:01:22.455Z,99737.41
2022-11-20T00:03:49.672Z,99736.94
2022-11-20T00:06:18.327Z,99741.66
2022-11-20T00:08:45.709Z,99740.78
2022-11-20T00:11:20.805Z,99737.34
2022-11-20T00:13:49.180Z,99743.94
2022-11-20T00:16:18.314Z,99742.94
2022-11-20T00:18:45.694Z,99737.00
2022-11-20T00:21:20.217Z,99749.03
2022-11-20T00:23:49.729Z,99748.41
2022-11-20T00:26:18.025Z,99745.63
2022-11-20T00:28:45.841Z,99753.06
2022-11-20T00:31:15.300Z,99754.19
2022-11-20T00:33:43.518Z,99749.16
2022-11-20T00:36:22.276Z,99753.34
2022-11-20T00:38:52.842Z,99741.03
2022-11-20T00:41:19.347Z,99748.50
2022-11-20T00:43:46.056Z,99745.13
2022-11-20T00:46:17.728Z,99738.31
2022-11-20T00:48:45.424Z,99745.06
2022-11-20T00:51:13.923Z,99747.72
2022-11-20T00:53:41.114Z,99743.56
2022-11-20T00:56:11.060Z,99740.03
2022-11-20T00:58:40.865Z,99738.34
2022-11-20T01:01:10.885Z,99740.91
2022-11-20T01:03:43.512Z,99750.16
2022-11-20T01:06:17.042Z,99747.19
2022-11-20T01:08:44.165Z,99742.09
2022-11-20T01:11:13.254Z,99743.81
2022-11-20T01:13:40.494Z,99743.00
2022-11-20T01:16:12.888Z,99751.09
2022-11-20T01:18:42.000Z,99745.91
2022-11-20T01:21:11.951Z,99749.25
2022-11-20T01:23:41.631Z,99751.88
2022-11-20T01:26:13.410Z,99753.81
2022-11-20T01:28:42.016Z,99751.28
2022-11-20T01:31:19.967Z,99759.31
2022-11-20T01:33:48.244Z,99754.78
2022-11-20T01:36:16.721Z,99744.72
2022-11-20T01:38:44.184Z,99739.09
2022-11-20T01:41:32.921Z,99746.19
2022-11-20T01:44:00.639Z,99749.09
2022-11-20T01:46:27.674Z,99742.47
2022-11-20T01:49:05.257Z,99732.28
2022-11-20T01:51:36.019Z,99736.97
2022-11-20T01:54:09.367Z,99732.81
2022-11-20T01:56:41.495Z,99733.63
2022-11-20T01:59:10.350Z,99740.38
2022-11-20T02:01:37.380Z,99724.25
2022-11-20T02:04:04.214Z,99725.34
2022-11-20T02:06:36.159Z,99723.75
2022-11-20T02:09:02.649Z,99718.16
2022-11-20T02:11:31.368Z,99724.13
2022-11-20T02:13:58.683Z,99718.22
2022-11-20T02:16:29.670Z,99723.06
2022-11-20T02:18:58.391Z,99722.44
2022-11-20T02:21:52.369Z,99721.09
2022-11-20T02:24:20.377Z,99713.97
2022-11-20T02:26:59.420Z,99707.66
2022-11-20T02:29:32.280Z,99700.25
2022-11-20T02:32:02.228Z,99709.47
2022-11-20T02:34:29.781Z,99699.88
2022-11-20T02:36:57.769Z,99699.09
2022-11-20T02:39:26.181Z,99699.69
2022-11-20T02:41:55.072Z,99701.94
2022-11-20T02:44:21.616Z,99696.97
2022-11-20T02:46:48.138Z,99694.53
2022-11-20T02:49:14.613Z,99695.13
2022-11-20T02:51:41.093Z,99689.09
2022-11-20T02:54:07.577Z,99698.50
2022-11-20T02:56:34.169Z,99700.03
2022-11-20T02:59:00.720Z,99696.66
2022-11-20T03:01:27.269Z,99699.75
2022-11-20T03:03:55.478Z,99700.22
2022-11-20T03:06:21.974Z,99691.00
2022-11-20T03:08:48.731Z,99691.25
2022-11-20T03:11:15.418Z,99697.19
2022-11-20T03:13:42.136Z,99691.25
2022-11-20T03:16:23.280Z,99691.31
2022-11-20T03:18:50.032Z,99686.13
2022-11-20T03:21:17.894Z,99680.41
2022-11-20T03:23:44.510Z,99681.47
2022-11-20T03:26:19.980Z,99674.31
2022-11-20T03:28:52.223Z,99670.91
2022-11-20T03:31:21.852Z,99675.38
2022-11-20T03:33:49.345Z,99660.84
2022-11-20T03:36:17.929Z,99660.00
2022-11-20T03:38:45.362Z,99656.53
2022-11-20T03:41:14.969Z,99654.09
2022-11-20T03:43:41.723Z,99645.53
2022-11-20T03:46:08.927Z,99649.97
2022-11-20T03:48:35.731Z,99645.00
2022-11-20T03:51:17.608Z,99652.09
2022-11-20T03:53:45.867Z,99652.16
2022-11-20T03:56:14.392Z,99644.75
2022-11-20T03:58:41.966Z,99644.81
2022-11-20T04:01:10.527Z,99646.34
2022-11-20T04:03:38.337Z,99645.91
2022-11-20T04:06:22.383Z,99639.88
2022-11-20T04:08:53.587Z,99647.16
2022-11-20T04:11:26.125Z,99650.28
2022-11-20T04:13:55.285Z,99652.91
2022-11-20T04:16:23.344Z,99645.72
2022-11-20T04:18:58.491Z,99642.03
2022-11-20T04:21:25.744Z,99633.03
2022-11-20T04:23:56.602Z,99632.16
2022-11-20T04:26:25.753Z,99622.59
2022-11-20T04:28:52.748Z,99629.34
2022-11-20T04:31:22.173Z,99629.13
2022-11-20T04:33:48.791Z,99626.47
2022-11-20T04:36:19.526Z,99629.38
2022-11-20T04:38:46.610Z,99624.16
2022-11-20T04:41:18.431Z,99622.72
2022-11-20T04:43:49.934Z,99617.13
2022-11-20T04:46:17.706Z,99611.28
2022-11-20T04:48:44.787Z,99613.06
2022-11-20T04:51:11.677Z,99609.69
2022-11-20T04:53:38.145Z,99619.53
2022-11-20T04:56:07.828Z,99614.28
2022-11-20T04:58:35.141Z,99618.25
2022-11-20T05:01:07.150Z,99616.09
2022-11-20T05:03:35.536Z,99620.03
2022-11-20T05:06:06.916Z,99613.72
2022-11-20T05:08:33.832Z,99606.00
2022-11-20T05:11:05.621Z,99610.81
2022-11-20T05:13:32.240Z,99614.28
2022-11-20T05:16:21.124Z,99617.63
2022-11-20T05:18:48.213Z,99611.09
2022-11-20T05:21:15.522Z,99618.88
2022-11-20T05:23:42.993Z,99614.22
2022-11-20T05:26:14.701Z,99616.59
2022-11-20T05:28:41.335Z,99614.88
2022-11-20T05:31:26.188Z,99609.88
2022-11-20T05:33:53.793Z,99610.94
2022-11-20T05:36:20.329Z,99616.16
2022-11-20T05:38:50.622Z,99608.41
2022-11-20T05:41:20.411Z,99609.66
2022-11-20T05:43:47.993Z,99610.59
2022-11-20T05:46:16.739Z,99602.59
2022-11-20T05:48:46.300Z,99611.81
2022-11-20T05:51:16.271Z,99606.53
2022-11-20T05:53:48.074Z,99615.75
2022-11-20T05:56:18.308Z,99608.63
2022-11-20T05:58:45.953Z,99611.03
2022-11-20T06:01:12.404Z,99607.25
2022-11-20T06:03:40.087Z,99607.81
2022-11-20T06:06:07.412Z,99615.38
2022-11-20T06:08:34.192Z,99612.84
2022-11-20T06:11:05.516Z,99619.59
2022-11-20T06:13:32.199Z,99622.63
2022-11-20T06:15:58.804Z,99628.47
2022-11-20T06:18:28.577Z,99626.03
2022-11-20T06:21:10.084Z,99619.72
2022-11-20T06:23:37.320Z,99621.31
2022-11-20T06:26:08.817Z,99616.97
2022-11-20T06:28:36.186Z,99619.56
2022-11-20T06:31:03.813Z,99614.56
2022-11-20T06:33:30.709Z,99614.41
2022-11-20T06:36:01.015Z,99617.91
2022-11-20T06:38:30.541Z,99621.31
2022-11-20T06:40:57.520Z,99618.41
2022-11-20T06:43:25.137Z,99614.28
2022-11-20T06:45:55.265Z,99619.88
2022-11-20T06:48:22.404Z,99612.63
2022-11-20T06:50:48.906Z,99615.16
2022-11-20T06:53:15.672Z,99605.84
2022-11-20T06:55:46.730Z,99616.16
2022-11-20T06:58:14.548Z,99613.94
2022-11-20T07:00:41.370Z,99617.47
2022-11-20T07:03:10.030Z,99613.56
2022-11-20T07:05:36.911Z,99612.34
2022-11-20T07:08:04.086Z,99613.25
2022-11-20T07:10:31.384Z,99611.38
2022-11-20T07:12:58.098Z,99613.56
2022-11-20T07:15:25.985Z,99624.50
2022-11-20T07:17:52.905Z,99624.97
2022-11-20T07:20:19.402Z,99635.66
2022-11-20T07:22:45.903Z,99630.09
2022-11-20T07:25:12.376Z,99634.97
2022-11-20T07:27:38.937Z,99637.19
2022-11-20T07:30:06.096Z,99638.81
2022-11-20T07:32:32.622Z,99635.59
2022-11-20T07:34:59.328Z,99634.03
2022-11-20T07:37:25.804Z,99630.03
2022-11-20T07:39:52.273Z,99635.25
2022-11-20T07:42:18.774Z,99632.06
2022-11-20T07:44:45.335Z,99629.59
2022-11-20T07:47:11.919Z,99623.94
2022-11-20T07:49:38.407Z,99628.28
2022-11-20T07:52:05.517Z,99639.59
2022-11-20T07:54:32.299Z,99639.97
2022-11-20T07:56:58.878Z,99636.94
2022-11-20T07:59:25.691Z,99630.06
2022-11-20T08:01:52.201Z,99635.16
2022-11-20T08:04:18.796Z,99634.78
2022-11-20T08:06:45.352Z,99635.09
2022-11-20T08:09:11.873Z,99649.53
2022-11-20T08:11:56.688Z,99653.44
2022-11-20T08:14:23.165Z,99650.97
2022-11-20T08:16:50.463Z,99645.63
2022-11-20T08:19:18.840Z,99648.31
2022-11-20T08:21:46.118Z,99656.81
2022-11-20T08:24:13.143Z,99658.66
2022-11-20T08:26:41.001Z,99669.88
2022-11-20T08:29:07.779Z,99671.84
2022-11-20T08:31:35.134Z,99682.88
2022-11-20T08:34:04.928Z,99689.97
2022-11-20T08:36:35.996Z,99693.50
2022-11-20T08:39:03.791Z,99698.00
2022-11-20T08:41:34.440Z,99708.44
2022-11-20T08:44:03.974Z,99710.84
2022-11-20T08:46:40.339Z,99711.72
2022-11-20T08:49:09.008Z,99721.72
2022-11-20T08:51:36.893Z,99731.38
2022-11-20T08:54:03.997Z,99747.84
2022-11-20T08:56:30.933Z,99761.63
2022-11-20T09:01:44.447Z,99760.25
2022-11-20T09:04:12.668Z,99770.53
2022-11-20T09:06:39.221Z,99775.25
2022-11-20T09:09:07.264Z,99774.78
2022-11-20T09:11:35.824Z,99783.19
2022-11-20T09:14:03.769Z,99789.09
2022-11-20T09:16:30.380Z,99802.50
2022-11-20T09:19:13.422Z,99802.44
2022-11-20T09:21:43.339Z,99815.03
2022-11-20T09:24:10.016Z,99816.25
2022-11-20T09:26:36.520Z,99815.50
2022-11-20T09:29:03.059Z,99812.00
2022-11-20T09:31:29.759Z,99825.09
2022-11-20T09:33:56.242Z,99828.78
2022-11-20T09:36:22.827Z,99825.91
2022-11-20T09:38:49.586Z,99817.44
2022-11-20T09:41:54.566Z,99805.94
2022-11-20T09:44:58.709Z,99801.59
2022-11-20T09:48:00.202Z,99804.97
2022-11-20T09:50:41.984Z,99809.25
2022-11-20T09:53:30.327Z,99806.50
2022-11-20T09:55:57.660Z,99790.16
2022-11-20T09:58:39.587Z,99782.53
2022-11-20T10:01:17.711Z,99773.31
2022-11-20T10:03:59.189Z,99767.81
2022-11-20T10:06:32.573Z,99788.28
2022-11-20T10:09:25.295Z,99787.41
2022-11-20T10:12:00.932Z,99799.59
2022-11-20T10:14:54.843Z,99812.38
2022-11-20T10:17:49.521Z,99815.88
2022-11-20T10:20:18.862Z,99838.56
2022-11-20T10:23:00.306Z,99827.72
2022-11-20T10:25:40.198Z,99839.88
2022-11-20T10:28:19.081Z,99844.06
2022-11-20T10:30:51.479Z,99855.41
2022-11-20T10:33:25.049Z,99860.38
2022-11-20T10:36:20.792Z,99865.84
2022-11-20T10:38:53.037Z,99855.50
2022-11-20T10:41:27.214Z,99843.41
2022-11-20T10:44:10.899Z,99845.63
2022-11-20T10:46:45.983Z,99850.22
2022-11-20T10:49:20.059Z,99853.13
2022-11-20T10:52:11.873Z,99872.44
2022-11-20T10:54:50.427Z,99869.53
2022-11-20T10:57:52.195Z,99885.81
2022-11-20T11:00:19.031Z,99872.38
2022-11-20T11:02:49.774Z,99884.91
2022-11-20T11:05:32.007Z,99891.06
2022-11-20T11:08:00.138Z,99898.06
2022-11-20T11:10:57.144Z,99916.75
2022-11-20T11:13:29.726Z,99923.69
2022-11-20T11:15:56.777Z,99939.34
2022-11-20T11:18:31.751Z,99948.13
2022-11-20T11:21:00.574Z,99954.63
2022-11-20T11:23:43.528Z,99958.47
2022-11-20T11:26:21.579Z,99964.75
2022-11-20T11:28:59.333Z,99980.44
2022-11-20T11:31:28.130Z,99988.22
2022-11-20T11:34:13.547Z,99989.16
2022-11-20T11:36:40.605Z,99983.69
2022-11-20T11:39:15.982Z,99978.00
2022-11-20T11:41:43.765Z,99989.78
2022-11-20T11:44:51.484Z,99989.00
2022-11-20T11:47:28.154Z,99985.00
2022-11-20T11:50:10.131Z,99995.84
2022-11-20T11:52:45.707Z,99997.69
2022-11-20T11:55:20.446Z,99995.38
2022-11-20T11:57:56.231Z,99991.25
2022-11-20T12:00:23.899Z,100007.44
2022-11-20T12:03:15.790Z,100004.19
2022-11-20T12:05:56.679Z,99994.88
2022-11-20T12:08:40.045Z,99998.84
2022-11-20T12:11:30.541Z,100005.59
2022-11-20T12:14:02.759Z,99993.25
2022-11-20T12:16:33.542Z,99992.06
2022-11-20T12:19:00.045Z,99993.09
2022-11-20T12:21:37.339Z,99992.13
2022-11-20T12:24:09.645Z,99990.53
2022-11-20T12:27:00.793Z,99985.69
2022-11-20T12:30:04.891Z,99983.91
2022-11-20T12:32:53.450Z,99986.47
2022-11-20T12:35:58.187Z,99985.84
2022-11-20T12:38:36.866Z,99983.41
2022-11-20T12:41:57.449Z,99988.84
2022-11-20T12:44:54.513Z,99983.16
2022-11-20T12:47:29.865Z,99978.53
2022-11-20T12:50:20.775Z,99974.97
2022-11-20T12:53:07.722Z,99981.69
2022-11-20T12:55:47.627Z,99986.81
2022-11-20T12:58:28.977Z,99985.34
2022-11-20T13:01:40.802Z,99989.44
2022-11-20T13:04:30.106Z,99980.81
2022-11-20T13:06:57.779Z,99980.72
2022-11-20T13:09:25.385Z,99983.22
2022-11-20T13:12:10.994Z,99957.38
2022-11-20T13:15:02.397Z,99929.69
2022-11-20T13:17:41.512Z,99887.19
2022-11-20T13:20:15.073Z,99838.53
2022-11-20T13:22:44.695Z,99780.25
2022-11-20T13:25:22.957Z,99742.28
2022-11-20T13:27:50.414Z,99668.47
2022-11-20T13:30:19.259Z,99622.38
2022-11-20T13:33:03.280Z,99593.28
2022-11-20T13:35:34.217Z,99560.78
2022-11-20T13:38:09.478Z,99538.50
2022-11-20T13:40:54.618Z,99516.63
2022-11-20T13:43:43.895Z,99502.31
2022-11-20T13:46:10.987Z,99494.53
2022-11-20T13:48:44.889Z,99482.00
2022-11-20T13:51:41.453Z,99481.47
2022-11-20T13:54:32.387Z,99473.78
2022-11-20T13:57:16.352Z,99467.06
2022-11-20T13:59:58.163Z,99464.59
2022-11-20T14:02:28.526Z,99461.19
2022-11-20T14:04:59.493Z,99448.84
2022-11-20T14:07:36.815Z,99436.25
2022-11-20T14:10:03.863Z,99443.59
2022-11-20T14:12:34.771Z,99443.66
2022-11-20T14:15:01.526Z,99453.06
2022-11-20T14:17:37.430Z,99447.34
2022-11-20T14:20:07.338Z,99456.16
2022-11-20T14:22:33.807Z,99452.69
2022-11-20T14:25:16.473Z,99461.59
2022-11-20T14:27:48.492Z,99455.63
2022-11-20T14:30:17.425Z,99459.22
2022-11-20T14:32:46.246Z,99444.66
2022-11-20T14:35:22.691Z,99445.63
2022-11-20T14:37:49.333Z,99444.09
2022-11-20T14:40:26.763Z,99445.94
2022-11-20T14:42:53.406Z,99448.59
2022-11-20T14:45:21.812Z,99455.75
2022-11-20T14:47:50.053Z,99452.53
2022-11-20T14:50:30.304Z,99474.19
2022-11-20T14:53:01.396Z,99497.28
2022-11-20T14:55:35.004Z,99500.91
2022-11-20T14:58:07.088Z,99525.75
2022-11-20T15:00:35.696Z,99537.81
2022-11-20T15:03:02.256Z,99560.97
2022-11-20T15:05:49.705Z,99590.13
2022-11-20T15:08:17.192Z,99619.97
2022-11-20T15:10:49.425Z,99653.44
2022-11-20T15:13:25.685Z,99671.28
2022-11-20T15:15:55.953Z,99691.06
2022-11-20T15:18:28.008Z,99709.00
2022-11-20T15:20:57.165Z,99731.34
2022-11-20T15:23:24.905Z,99740.81
2022-11-20T15:25:51.436Z,99754.53
2022-11-20T15:28:42.191Z,99764.81
2022-11-20T15:31:13.310Z,99778.56
2022-11-20T15:33:39.952Z,99782.78
2022-11-20T15:36:06.575Z,99792.16
2022-11-20T15:38:33.173Z,99805.03
2022-11-20T15:40:59.722Z,99809.38
2022-11-20T15:43:26.265Z,99816.25
2022-11-20T15:45:57.711Z,99833.44
2022-11-20T15:48:28.204Z,99833.34
2022-11-20T15:51:06.173Z,99840.28
2022-11-20T15:53:32.701Z,99850.53
2022-11-20T15:55:59.306Z,99853.81
2022-11-20T15:58:27.644Z,99849.50
2022-11-20T16:00:54.799Z,99852.09
2022-11-20T16:03:22.092Z,99840.91
2022-11-20T16:05:49.040Z,99840.00
2022-11-20T16:08:16.077Z,99837.41
2022-11-20T16:10:42.766Z,99844.34
2022-11-20T16:13:36.664Z,99842.53
2022-11-20T16:16:07.651Z,99843.31
2022-11-20T16:18:34.358Z,99833.84
2022-11-20T16:21:01.016Z,99831.97
2022-11-20T16:23:27.883Z,99826.00
2022-11-20T16:25:54.473Z,99827.78
2022-11-20T16:28:21.169Z,99825.19
2022-11-20T16:30:47.782Z,99838.25
2022-11-20T16:33:18.315Z,99848.47
2022-11-20T16:35:44.961Z,99875.94
2022-11-20T16:38:11.488Z,99886.28
2022-11-20T16:40:38.031Z,99889.69
2022-11-20T16:43:10.932Z,99889.63
2022-11-20T16:45:44.950Z,99886.88
2022-11-20T16:48:16.334Z,99908.41
2022-11-20T16:50:48.644Z,99932.50
2022-11-20T16:53:15.315Z,99958.97
2022-11-20T16:55:42.034Z,99979.66
2022-11-20T16:58:09.354Z,99992.38
2022-11-20T17:00:41.792Z,99994.97
2022-11-20T17:03:10.246Z,100012.13
2022-11-20T17:05:36.778Z,100008.50
2022-11-20T17:08:03.416Z,100019.59
2022-11-20T17:10:30.153Z,100028.22
2022-11-20T17:12:56.726Z,100035.84
2022-11-20T17:15:23.313Z,100035.84
2022-11-20T17:17:49.835Z,100034.00
2022-11-20T17:20:16.356Z,100051.06
2022-11-20T17:22:42.809Z,100056.22
2022-11-20T17:25:09.429Z,100062.25
2022-11-20T17:27:35.903Z,100056.19
2022-11-20T17:30:02.381Z,100067.31
2022-11-20T17:32:29.389Z,100091.91
2022-11-20T17:34:56.409Z,100095.44
2022-11-20T17:37:22.924Z,100093.47
2022-11-20T17:39:49.450Z,100077.44
2022-11-20T17:42:29.671Z,100058.31
2022-11-20T17:44:59.526Z,100053.44
2022-11-20T17:47:26.243Z,100036.19
2022-11-20T17:49:53.677Z,100020.28
2022-11-20T17:52:20.412Z,99989.63
2022-11-20T17:54:47.096Z,99959.38
2022-11-20T17:57:32.227Z,99947.41
2022-11-20T17:59:58.960Z,99931.03
2022-11-20T18:02:25.426Z,99913.91
2022-11-20T18:04:51.938Z,99893.59
2022-11-20T18:07:18.499Z,99877.19
2022-11-20T18:09:45.053Z,99866.97
2022-11-20T18:12:11.609Z,99862.72
2022-11-20T18:14:38.142Z,99852.47
2022-11-20T18:17:12.385Z,99838.31
2022-11-20T18:19:51.575Z,99839.84
2022-11-20T18:22:28.349Z,99837.44
2022-11-20T18:24:54.813Z,99834.88
2022-11-20T18:27:21.795Z,99833.03
2022-11-20T18:29:51.616Z,99828.75
2022-11-20T18:32:22.787Z,99821.13
2022-11-20T18:34:49.962Z,99814.28
2022-11-20T18:37:16.849Z,99814.19
2022-11-20T18:39:43.750Z,99827.03
2022-11-20T18:42:34.856Z,99827.75
2022-11-20T18:45:04.279Z,99829.56
2022-11-20T18:47:36.121Z,99837.94
2022-11-20T18:50:04.951Z,99839.50
2022-11-20T18:52:34.360Z,99847.94
2022-11-20T18:55:02.952Z,99853.16
2022-11-20T18:57:30.775Z,99857.34
2022-11-20T19:00:03.462Z,99869.94
2022-11-20T19:02:35.425Z,99872.34
2022-11-20T19:05:04.768Z,99870.66
2022-11-20T19:07:31.930Z,99866.28
2022-11-20T19:10:03.429Z,99860.16
2022-11-20T19:12:30.534Z,99855.09
2022-11-20T19:14:57.801Z,99836.88
2022-11-20T19:17:24.300Z,99848.41
2022-11-20T19:19:51.097Z,99840.56
2022-11-20T19:22:17.781Z,99818.63
2022-11-20T19:24:44.329Z,99805.25
2022-11-20T19:27:10.853Z,99804.78
2022-11-20T19:29:37.436Z,99783.06
2022-11-20T19:32:04.824Z,99782.81
2022-11-20T19:34:31.824Z,99763.88
2022-11-20T19:37:00.489Z,99753.34
2022-11-20T19:39:27.241Z,99735.56
2022-11-20T19:41:53.980Z,99732.59
2022-11-20T19:44:20.589Z,99728.97
2022-11-20T19:46:47.194Z,99721.94
2022-11-20T19:49:14.612Z,99723.44
2022-11-20T19:51:46.557Z,99721.69
2022-11-20T19:54:13.590Z,99719.19
2022-11-20T19:56:40.327Z,99724.38
2022-11-20T19:59:06.830Z,99712.22
2022-11-20T20:01:33.391Z,99710.34
2022-11-20T20:04:05.687Z,99708.59
2022-11-20T20:06:35.392Z,99719.59
2022-11-20T20:09:05.729Z,99711.97
2022-11-20T20:11:34.059Z,99700.06
2022-11-20T20:14:02.550Z,99699.97
2022-11-20T20:16:29.095Z,99690.50
2022-11-20T20:18:57.422Z,99687.91
2022-11-20T20:21:24.454Z,99686.22
2022-11-20T20:23:53.562Z,99680.25
2022-11-20T20:26:21.217Z,99679.47
2022-11-20T20:28:48.065Z,99670.09
2022-11-20T20:31:17.342Z,99667.75
2022-11-20T20:33:43.985Z,99678.06
2022-11-20T20:36:12.415Z,99670.94
2022-11-20T20:38:39.012Z,99678.66
2022-11-20T20:41:05.702Z,99660.66
2022-11-20T20:43:52.858Z,99652.19
2022-11-20T20:46:19.964Z,99636.91
2022-11-20T20:48:51.509Z,99638.53
2022-11-20T20:51:20.869Z,99640.19
2022-11-20T20:53:47.683Z,99630.00
2022-11-20T20:56:14.224Z,99624.31
2022-11-20T20:58:40.975Z,99623.38
2022-11-20T21:01:10.499Z,99614.81
2022-11-20T21:03:38.174Z,99607.94
2022-11-20T21:06:06.904Z,99603.81
2022-11-20T21:08:33.755Z,99606.38
2022-11-20T21:11:06.215Z,99601.13
2022-11-20T21:13:34.214Z,99592.66
2022-11-20T21:16:01.189Z,99590.06
2022-11-20T21:18:28.628Z,99580.66
2022-11-20T21:21:13.922Z,99580.75
2022-11-20T21:23:42.114Z,99590.09
2022-11-20T21:26:09.787Z,99594.41
2022-11-20T21:28:38.082Z,99585.03
2022-11-20T21:31:06.879Z,99583.34
2022-11-20T21:33:53.793Z,99592.03
2022-11-20T21:36:22.680Z,99589.34
2022-11-20T21:38:51.336Z,99580.78
2022-11-20T21:41:18.040Z,99579.09
2022-11-20T21:43:44.705Z,99569.78
2022-11-20T21:46:13.336Z,99570.69
2022-11-20T21:48:41.654Z,99565.56
2022-11-20T21:51:10.918Z,99566.38
2022-11-20T21:53:37.815Z,99560.53
2022-11-20T21:56:06.960Z,99572.38
2022-11-20T21:58:35.020Z,99571.50
2022-11-20T22:01:10.910Z,99569.09
2022-11-20T22:03:38.502Z,99566.44
2022-11-20T22:06:06.837Z,99565.56
2022-11-20T22:08:37.946Z,99553.59
2022-11-20T22:11:07.534Z,99547.59
2022-11-20T22:13:52.993Z,99549.41
2022-11-20T22:16:19.606Z,99544.06
2022-11-20T22:18:48.261Z,99548.56
2022-11-20T22:21:15.942Z,99543.50
2022-11-20T22:23:42.691Z,99537.31
2022-11-20T22:26:12.390Z,99535.66
2022-11-20T22:28:39.786Z,99530.72
2022-11-20T22:31:08.581Z,99528.38
2022-11-20T22:33:36.703Z,99534.28
2022-11-20T22:36:06.111Z,99533.81
2022-11-20T22:38:38.894Z,99532.38
2022-11-20T22:41:07.124Z,99535.50
2022-11-20T22:43:34.028Z,99538.31
2022-11-20T22:46:06.139Z,99532.31
2022-11-20T22:48:34.203Z,99536.47
2022-11-20T22:51:13.925Z,99540.00
2022-11-20T22:53:42.118Z,99532.00
2022-11-20T22:56:11.336Z,99523.63
2022-11-20T22:58:38.969Z,99537.38
2022-11-20T23:01:13.294Z,99537.09
2022-11-20T23:03:41.955Z,99532.78
2022-11-20T23:06:09.660Z,99530.34
2022-11-20T23:08:37.805Z,99510.72
2022-11-20T23:11:09.818Z,99521.75
2022-11-20T23:13:37.285Z,99514.91
2022-11-20T23:16:12.281Z,99510.63
2022-11-20T23:18:39.257Z,99512.91
2022-11-20T23:21:10.322Z,99513.03
2022-11-20T23:23:36.832Z,99521.41
2022-11-20T23:26:05.463Z,99521.78
2022-11-20T23:28:32.232Z,99521.97
2022-11-20T23:30:59.152Z,99516.28
2022-11-20T23:33:25.685Z,99507.97
2022-11-20T23:35:52.865Z,99506.13
2022-11-20T23:38:19.785Z,99501.66
2022-11-20T23:40:50.964Z,99499.88
2022-11-20T23:43:19.475Z,99499.03
2022-11-20T23:45:50.166Z,99488.94
2022-11-20T23:48:17.894Z,99489.78
2022-11-20T23:50:44.558Z,99486.53
2022-11-20T23:53:11.462Z,99488.13
2022-11-20T23:55:38.126Z,99485.56
2022-11-20T23:58:05.195Z,99479.25
